Flight Track Log - Related Links

Times and Time Zones

All times are in EDT time to prevent confusion due to time zone crossing. See the SWA1462 flight status page for this flight to view local times or setup timezone preferences in your user account.


Time Position Orientation Groundspeed Altitude Reporting Facility
EDT Latitude Longitude Course Direction KTS MPH feet Rate Location/Type
Tue 01:52:47 PM 40.8047 -112.0028 303° West 143 165 5,500  Level Salt Lake Center
Tue 01:53:27 PM 40.8197 -112.0328 303° West 184 212 6,900 2,727 Climbing Salt Lake Center
Tue 01:53:42 PM 40.8208 -112.0625 273° West 218 251 8,000 3,290 Climbing Salt Lake Center
Tue 01:54:29 PM 40.8275 -112.1233 278° West 246 283 10,300 2,687 Climbing Salt Lake Center
Tue 01:54:49 PM 40.8217 -112.1669 260° West 271 312 11,000 2,852 Climbing Salt Lake Center
Tue 01:55:30 PM 40.8083 -112.2225 252° West 277 319 13,200 2,971 Climbing Salt Lake Center
Tue 01:56:32 PM 40.7300 -112.2797 209° Southwest 336 387 16,100 3,000 Climbing Salt Lake Center
Tue 01:57:34 PM 40.6306 -112.3011 189° South 361 415 19,400 3,317 Climbing Salt Lake Center
Tue 01:58:35 PM 40.5003 -112.3236 187° South 395 455 22,900 2,195 Climbing Salt Lake Center
Tue 01:59:37 PM 40.3867 -112.3494 190° South 414 476 23,900 1,854 Climbing Salt Lake Center
Tue 02:00:38 PM 40.2778 -112.3992 199° South 418 481 26,700 2,439 Climbing Salt Lake Center
Tue 02:01:40 PM 40.1717 -112.4750 209° Southwest 435 501 28,900 1,984 Climbing Salt Lake Center
Tue 02:02:42 PM 40.0603 -112.5533 208° Southwest 456 525 30,800 2,000 Climbing Salt Lake Center
Tue 02:03:43 PM 39.9453 -112.6339 208° Southwest 468 539 33,000 2,195 Climbing Salt Lake Center
Tue 02:04:45 PM 39.8322 -112.7125 208° Southwest 462 532 35,300 1,463 Climbing Salt Lake Center
Tue 02:05:46 PM 39.7011 -112.8036 208° Southwest 463 533 36,000 341 Climbing Salt Lake Center
Tue 02:06:48 PM 39.5717 -112.8347 190° South 473 544 36,000  Level Salt Lake Center
Tue 02:07:50 PM 39.4403 -112.8547 187° South 476 548 36,000  Level Salt Lake Center
Tue 02:08:51 PM 39.3089 -112.8736 186° South 476 548 36,000  Level Salt Lake Center
Tue 02:09:53 PM 39.1781 -112.8950 187° South 476 548 36,000  Level Salt Lake Center
Tue 02:10:54 PM 39.0475 -112.9131 186° South 475 547 36,000  Level Salt Lake Center
Tue 02:11:56 PM 38.8906 -112.9297 185° South 473 544 36,000  Level Salt Lake Center
Tue 02:12:58 PM 38.7606 -112.9003 170° South 474 545 36,000  Level Salt Lake Center
Tue 02:13:59 PM 38.6308 -112.8758 172° South 474 545 36,000  Level Salt Lake Center
Tue 02:15:01 PM 38.5003 -112.8511 172° South 474 545 36,000  Level Salt Lake Center
Tue 02:16:02 PM 38.3708 -112.8269 172° South 472 543 36,000  Level Salt Lake Center
Tue 02:17:04 PM 38.2411 -112.8014 171° South 471 542 36,000  Level Salt Lake Center
Tue 02:18:06 PM 38.1119 -112.7769 172° South 470 541 36,000  Level Salt Lake Center
Tue 02:19:07 PM 37.9822 -112.7528 172° South 470 541 36,000  Level Salt Lake Center
Tue 02:20:09 PM 37.8286 -112.7014 165° South 475 547 36,000  Level Salt Lake Center
Tue 02:21:10 PM 37.6997 -112.6728 170° South 467 537 36,000  Level Salt Lake Center
Tue 02:22:12 PM 37.5678 -112.6511 173° South 466 536 36,000  Level Salt Lake Center
Tue 02:23:13 PM 37.4369 -112.6269 172° South 467 537 36,000  Level Salt Lake Center
Tue 02:24:03 PM 37.3308 -112.6078 172° South 469 540 36,000 -375 Level Los Angeles Center
Tue 02:25:05 PM 37.2008 -112.5861 172° South 467 537 35,300 -823 Descending Los Angeles Center
Tue 02:26:07 PM 37.0714 -112.5636 172° South 468 539 34,300 -919 Descending Los Angeles Center
Tue 02:27:09 PM 36.9425 -112.5428 173° South 466 536 33,400 -629 Descending Los Angeles Center
Tue 02:28:11 PM 36.8128 -112.5206 172° South 468 539 33,000 -194 Descending Los Angeles Center
Tue 02:29:13 PM 36.6594 -112.4936 172° South 465 535 33,000  Level Los Angeles Center
Tue 02:30:15 PM 36.5314 -112.4728 173° South 464 534 33,000  Level Los Angeles Center
Tue 02:31:17 PM 36.4036 -112.4517 172° South 465 535 33,000  Level Los Angeles Center
Tue 02:32:19 PM 36.2742 -112.4317 173° South 466 536 33,000  Level Los Angeles Center
Tue 02:33:21 PM 36.1450 -112.4097 172° South 468 539 33,000  Level Los Angeles Center
Tue 02:34:23 PM 36.0142 -112.4008 177° South 471 542 33,000  Level Los Angeles Center
Tue 02:35:25 PM 35.8811 -112.4094 183° South 475 547 33,000 -484 Level Los Angeles Center
Tue 02:36:27 PM 35.7233 -112.4181 183° South 474 545 32,000 -1,452 Descending Los Angeles Center
Tue 02:37:29 PM 35.5956 -112.4233 182° South 467 537 30,000 -1,452 Descending Los Angeles Center
Tue 02:38:31 PM 35.4747 -112.4339 184° South 452 520 29,000 -484 Descending Los Angeles Center
Tue 02:39:33 PM 35.3544 -112.4294 178° South 434 499 29,000  Level Los Angeles Center
Tue 02:40:23 PM 35.2561 -112.4075 170° South 439 505 29,000  Level Albuquerque Center
Tue 02:41:25 PM 35.1350 -112.3817 170° South 440 506 29,000 -97 Level Albuquerque Center
Tue 02:42:27 PM 35.0128 -112.3561 170° South 443 510 28,800 -1,415 Descending Albuquerque Center
Tue 02:43:28 PM 34.8692 -112.3239 170° South 438 504 26,100 -1,366 Descending Albuquerque Center
Tue 02:44:30 PM 34.7533 -112.2992 170° South 427 491 26,000 -1,113 Descending Albuquerque Center
Tue 02:45:32 PM 34.6419 -112.2742 170° South 425 489 23,800 -2,177 Descending Albuquerque Center
Tue 02:46:34 PM 34.5303 -112.2492 170° South 415 478 21,500 -1,839 Descending Albuquerque Center
Tue 02:47:36 PM 34.4236 -112.2250 169° South 399 459 20,000 -780 Descending Albuquerque Center
Tue 02:48:37 PM 34.2986 -112.1914 167° South 388 447 19,900 -1,220 Descending Albuquerque Center
Tue 02:49:39 PM 34.1969 -112.1647 168° South 380 437 17,500 -1,984 Descending Albuquerque Center
Tue 02:50:41 PM 34.0975 -112.1394 168° South 371 427 15,800 -1,561 Descending Albuquerque Center
Tue 02:51:42 PM 34.0042 -112.1158 168° South 349 402 14,300 -1,512 Descending Albuquerque Center
Tue 02:52:44 PM 33.9139 -112.0919 168° South 338 389 12,700 -1,548 Descending Albuquerque Center
Tue 02:53:46 PM 33.8272 -112.0694 168° South 324 373 11,100 -1,415 Descending Albuquerque Center
Tue 02:54:47 PM 33.7261 -112.0467 169° South 310 357 9,800 -829 Descending Albuquerque Center
Tue 02:55:49 PM 33.6553 -112.0347 172° South 264 304 9,400 -387 Descending Albuquerque Center
Tue 02:56:51 PM 33.5881 -112.0225 171° South 247 284 9,000 -732 Descending Albuquerque Center
Tue 02:57:52 PM 33.5333 -111.9786 146° Southeast 249 287 7,900 -976 Descending Albuquerque Center
Tue 02:58:54 PM 33.5278 -111.8964 95° East 253 291 7,000 -435 Descending Albuquerque Center
Tue 02:59:56 PM 33.5275 -111.8275 90° East 206 237 7,000 -484 Level Albuquerque Center
Tue 03:00:58 PM 33.5058 -111.7614 111° Southeast 206 237 6,000 -829 Descending Albuquerque Center
Tue 03:01:59 PM 33.4675 -111.7858 208° Southwest 179 206 5,300 -976 Descending Albuquerque Center
Tue 03:03:01 PM 33.4439 -111.8339 240° Southwest 168 193 4,000 -1,161 Descending Albuquerque Center
Tue 03:04:03 PM 33.4406 -111.8814 265° West 145 167 2,900 -927 Descending Albuquerque Center
Tue 03:05:04 PM 33.4403 -111.9300 270° West 145 167 2,100 -732 Descending Albuquerque Center
Tue 03:06:06 PM 33.4406 -111.9722 270° West 130 150 1,400 -677 Descending Albuquerque Center

Login

Don't have an account? Register now (free) for customized features, flight alerts, and more!